createdAt,value
2023-02-06T00:00:40.616Z,5.47
2023-02-06T00:03:07.147Z,4.38
2023-02-06T00:05:33.967Z,5.28
2023-02-06T00:08:01.165Z,5.28
2023-02-06T00:10:27.730Z,5.03
2023-02-06T00:12:54.398Z,5.43
2023-02-06T00:15:21.382Z,5.28
2023-02-06T00:17:48.140Z,5.68
2023-02-06T00:20:14.761Z,5.00
2023-02-06T00:22:41.473Z,4.70
2023-02-06T00:25:08.345Z,5.43
2023-02-06T00:27:35.147Z,4.80
2023-02-06T00:30:01.782Z,5.30
2023-02-06T00:32:28.375Z,5.68
2023-02-06T00:34:54.993Z,6.10
2023-02-06T00:37:21.570Z,4.70
2023-02-06T00:39:48.100Z,5.43
2023-02-06T00:42:14.917Z,4.90
2023-02-06T00:44:41.431Z,5.72
2023-02-06T00:47:07.971Z,5.82
2023-02-06T00:49:34.516Z,5.93
2023-02-06T00:52:01.049Z,5.47
2023-02-06T00:54:27.597Z,4.65
2023-02-06T00:56:54.155Z,5.40
2023-02-06T00:59:20.790Z,5.28
2023-02-06T01:01:47.427Z,6.03
2023-02-06T01:04:14.211Z,7.60
2023-02-06T01:06:40.754Z,5.75
2023-02-06T01:09:07.316Z,5.22
2023-02-06T01:11:35.360Z,4.75
2023-02-06T01:14:02.116Z,4.82
2023-02-06T01:16:28.745Z,5.38
2023-02-06T01:18:55.461Z,4.97
2023-02-06T01:21:24.202Z,5.18
2023-02-06T01:23:53.090Z,4.80
2023-02-06T01:26:22.929Z,4.47
2023-02-06T01:28:50.345Z,4.82
2023-02-06T01:31:26.340Z,5.40
2023-02-06T01:33:53.519Z,4.50
2023-02-06T01:36:21.036Z,4.18
2023-02-06T01:38:48.418Z,5.82
2023-02-06T01:41:16.983Z,4.35
2023-02-06T01:43:46.824Z,4.05
2023-02-06T01:46:13.771Z,4.55
2023-02-06T01:48:51.643Z,4.40
2023-02-06T01:51:21.826Z,4.65
2023-02-06T01:53:52.686Z,4.63
2023-02-06T01:56:21.117Z,4.78
2023-02-06T01:58:55.096Z,4.28
2023-02-06T02:01:22.307Z,4.30
2023-02-06T02:03:54.300Z,4.15
2023-02-06T02:08:53.435Z,4.38
2023-02-06T02:11:33.986Z,4.18
2023-02-06T02:14:03.345Z,4.13
2023-02-06T02:16:51.240Z,4.72
2023-02-06T02:19:39.419Z,5.13
2023-02-06T02:22:30.159Z,4.10
2023-02-06T02:25:07.841Z,4.93
2023-02-06T02:28:11.499Z,4.53
2023-02-06T02:42:11.945Z,4.22
2023-02-06T02:47:23.565Z,4.68
2023-02-06T02:49:50.589Z,4.03
2023-02-06T02:52:18.924Z,4.43
2023-02-06T02:54:45.461Z,3.97
2023-02-06T02:57:18.752Z,4.20
2023-02-06T02:59:48.019Z,4.43
2023-02-06T03:02:41.873Z,3.95
2023-02-06T03:05:13.763Z,3.92
2023-02-06T03:07:59.194Z,3.72
2023-02-06T03:10:28.686Z,3.75
2023-02-06T03:13:16.420Z,3.70
2023-02-06T03:15:54.923Z,3.67
2023-02-06T03:18:31.126Z,4.43
2023-02-06T03:21:00.221Z,3.53
2023-02-06T03:23:31.765Z,3.72
2023-02-06T03:26:02.176Z,3.60
2023-02-06T03:28:37.670Z,3.05
2023-02-06T03:31:09.708Z,3.40
2023-02-06T03:36:17.128Z,3.10
2023-02-06T03:38:48.862Z,3.97
2023-02-06T03:41:18.200Z,3.03
2023-02-06T03:43:47.201Z,3.45
2023-02-06T03:46:15.770Z,3.60
2023-02-06T03:48:47.180Z,3.10
2023-02-06T03:51:29.235Z,2.90
2023-02-06T03:53:58.838Z,2.95
2023-02-06T03:56:35.264Z,3.17
2023-02-06T03:59:02.082Z,2.80
2023-02-06T04:01:28.964Z,2.85
2023-02-06T04:03:55.769Z,2.17
2023-02-06T04:06:22.444Z,2.97
2023-02-06T04:08:49.034Z,2.80
2023-02-06T04:11:15.616Z,2.38
2023-02-06T04:13:42.168Z,2.95
2023-02-06T04:16:09.694Z,2.70
2023-02-06T04:18:36.272Z,2.13
2023-02-06T04:21:04.793Z,2.30
2023-02-06T04:23:31.504Z,2.75
2023-02-06T04:25:58.065Z,2.50
2023-02-06T04:28:24.630Z,2.60
2023-02-06T04:30:51.288Z,2.45
2023-02-06T04:33:18.270Z,2.70
2023-02-06T04:35:44.831Z,2.90
2023-02-06T04:38:11.413Z,2.40
2023-02-06T04:40:37.958Z,3.05
2023-02-06T04:43:04.463Z,2.90
2023-02-06T04:45:31.068Z,2.53
2023-02-06T04:47:59.465Z,2.78
2023-02-06T04:50:29.375Z,2.70
2023-02-06T04:52:55.923Z,2.70
2023-02-06T04:55:22.843Z,2.50
2023-02-06T04:57:49.419Z,2.58
2023-02-06T05:00:16.468Z,2.45
2023-02-06T05:02:43.252Z,2.72
2023-02-06T05:05:09.856Z,2.35
2023-02-06T05:07:36.710Z,2.53
2023-02-06T05:10:03.956Z,2.53
2023-02-06T05:12:30.498Z,2.38
2023-02-06T05:14:57.043Z,2.25
2023-02-06T05:17:23.608Z,2.17
2023-02-06T05:19:50.155Z,2.58
2023-02-06T05:22:16.780Z,2.40
2023-02-06T05:24:43.346Z,2.67
2023-02-06T05:27:10.101Z,2.50
2023-02-06T05:29:36.673Z,2.55
2023-02-06T05:32:03.331Z,2.38
2023-02-06T05:34:29.877Z,2.60
2023-02-06T05:36:56.498Z,2.70
2023-02-06T05:39:23.102Z,2.58
2023-02-06T05:41:49.728Z,2.92
2023-02-06T05:44:16.459Z,3.15
2023-02-06T05:46:44.218Z,2.50
2023-02-06T05:49:10.942Z,2.72
2023-02-06T05:51:37.595Z,2.70
2023-02-06T05:54:04.326Z,2.78
2023-02-06T05:56:31.006Z,2.42
2023-02-06T05:58:57.946Z,2.10
2023-02-06T06:01:24.549Z,2.20
2023-02-06T06:03:51.148Z,2.38
2023-02-06T06:06:17.799Z,2.10
2023-02-06T06:08:44.343Z,2.50
2023-02-06T06:11:10.906Z,3.00
2023-02-06T06:13:37.456Z,2.65
2023-02-06T06:16:04.358Z,2.63
2023-02-06T06:18:31.075Z,2.88
2023-02-06T06:20:57.623Z,2.45
2023-02-06T06:23:24.181Z,2.63
2023-02-06T06:25:50.729Z,2.78
2023-02-06T06:28:17.473Z,3.60
2023-02-06T06:30:44.217Z,3.08
2023-02-06T06:33:10.958Z,2.42
2023-02-06T06:35:37.763Z,2.70
2023-02-06T06:38:04.487Z,2.15
2023-02-06T06:40:31.033Z,2.40
2023-02-06T06:42:57.649Z,3.83
2023-02-06T06:45:24.421Z,2.83
2023-02-06T06:47:50.965Z,3.00
2023-02-06T06:50:17.568Z,2.72
2023-02-06T06:52:44.131Z,2.67
2023-02-06T06:55:10.961Z,2.63
2023-02-06T06:57:37.527Z,2.90
2023-02-06T07:00:04.896Z,2.88
2023-02-06T07:02:31.514Z,2.80
2023-02-06T07:05:00.327Z,2.70
2023-02-06T07:07:26.995Z,3.08
2023-02-06T07:09:53.592Z,3.40
2023-02-06T07:12:20.406Z,3.28
2023-02-06T07:14:47.065Z,3.45
2023-02-06T07:17:13.605Z,3.33
2023-02-06T07:19:40.179Z,3.28
2023-02-06T07:22:06.798Z,3.60
2023-02-06T07:24:33.383Z,3.88
2023-02-06T07:26:59.918Z,3.75
2023-02-06T07:29:26.595Z,3.33
2023-02-06T07:31:53.251Z,3.42
2023-02-06T07:34:19.786Z,4.55
2023-02-06T07:36:46.375Z,3.50
2023-02-06T07:39:12.959Z,3.42
2023-02-06T07:41:39.583Z,3.92
2023-02-06T07:44:06.567Z,3.40
2023-02-06T07:46:34.614Z,3.67
2023-02-06T07:49:01.356Z,4.43
2023-02-06T07:51:28.060Z,3.92
2023-02-06T07:53:55.002Z,4.40
2023-02-06T07:56:23.441Z,3.75
2023-02-06T07:58:52.136Z,4.47
2023-02-06T08:01:20.255Z,4.38
2023-02-06T08:03:49.836Z,3.60
2023-02-06T08:06:16.928Z,4.88
2023-02-06T08:08:44.047Z,4.72
2023-02-06T08:11:15.106Z,4.57
2023-02-06T08:13:42.921Z,4.60
2023-02-06T08:16:15.015Z,4.63
2023-02-06T08:18:41.892Z,4.50
2023-02-06T08:21:14.781Z,3.55
2023-02-06T08:23:42.242Z,4.20
2023-02-06T08:26:17.409Z,3.70
2023-02-06T08:28:46.413Z,4.63
2023-02-06T08:31:17.709Z,4.35
2023-02-06T08:33:44.631Z,4.22
2023-02-06T08:36:12.711Z,4.05
2023-02-06T08:38:39.789Z,4.05
2023-02-06T08:41:27.260Z,3.85
2023-02-06T08:43:59.596Z,4.00
2023-02-06T08:46:29.215Z,4.30
2023-02-06T08:48:56.928Z,4.25
2023-02-06T08:51:27.807Z,5.00
2023-02-06T08:54:02.247Z,4.35
2023-02-06T08:56:30.708Z,5.28
2023-02-06T08:59:01.371Z,4.10
2023-02-06T09:01:31.199Z,4.15
2023-02-06T09:04:00.504Z,4.13
2023-02-06T09:06:28.092Z,4.93
2023-02-06T09:08:56.719Z,3.90
2023-02-06T09:11:25.270Z,4.57
2023-02-06T09:13:54.712Z,4.47
2023-02-06T09:16:21.882Z,4.00
2023-02-06T09:18:50.932Z,4.20
2023-02-06T09:21:22.330Z,4.25
2023-02-06T09:23:52.156Z,4.25
2023-02-06T09:26:21.804Z,3.85
2023-02-06T09:28:52.894Z,4.50
2023-02-06T09:31:19.856Z,4.90
2023-02-06T09:33:46.671Z,4.10
2023-02-06T09:36:15.695Z,3.97
2023-02-06T09:38:48.349Z,3.75
2023-02-06T09:41:18.338Z,3.88
2023-02-06T09:43:57.753Z,4.00
2023-02-06T09:46:31.476Z,3.58
2023-02-06T09:49:02.018Z,4.05
2023-02-06T09:52:03.000Z,4.00
2023-02-06T09:55:05.616Z,3.80
2023-02-06T09:58:02.736Z,4.20
2023-02-06T10:00:44.980Z,3.80
2023-02-06T10:03:36.510Z,3.65
2023-02-06T10:06:22.463Z,3.92
2023-02-06T10:09:04.075Z,3.15
2023-02-06T10:12:03.573Z,3.83
2023-02-06T10:14:43.532Z,3.58
2023-02-06T10:17:47.253Z,3.50
2023-02-06T10:20:34.560Z,3.83
2023-02-06T10:23:01.330Z,3.40
2023-02-06T10:25:34.921Z,3.90
2023-02-06T10:28:23.378Z,4.03
2023-02-06T10:31:08.655Z,3.53
2023-02-06T10:33:53.069Z,4.40
2023-02-06T10:36:40.946Z,3.70
2023-02-06T10:39:27.416Z,3.38
2023-02-06T10:41:54.094Z,3.60
2023-02-06T10:44:35.363Z,3.50
2023-02-06T10:47:02.429Z,3.30
2023-02-06T10:49:41.082Z,3.83
2023-02-06T10:52:25.166Z,3.83
2023-02-06T10:54:55.728Z,3.35
2023-02-06T10:57:25.148Z,3.22
2023-02-06T10:59:58.471Z,3.55
2023-02-06T11:02:46.335Z,3.17
2023-02-06T11:05:19.454Z,3.28
2023-02-06T11:07:50.410Z,3.70
2023-02-06T11:10:20.095Z,3.45
2023-02-06T11:13:02.807Z,3.38
2023-02-06T11:15:57.511Z,3.40
2023-02-06T11:18:46.043Z,3.03
2023-02-06T11:21:15.708Z,2.70
2023-02-06T11:23:42.377Z,2.95
2023-02-06T11:26:19.980Z,3.08
2023-02-06T11:28:56.576Z,3.13
2023-02-06T11:31:58.621Z,2.72
2023-02-06T11:34:42.522Z,3.20
2023-02-06T11:37:32.335Z,2.60
2023-02-06T11:40:17.644Z,2.70
2023-02-06T11:42:49.727Z,2.67
2023-02-06T11:47:52.860Z,2.55
2023-02-06T11:50:29.645Z,2.83
2023-02-06T11:53:00.625Z,3.00
2023-02-06T11:55:31.132Z,3.22
2023-02-06T11:58:13.094Z,2.78
2023-02-06T12:01:02.141Z,2.70
2023-02-06T12:03:37.769Z,2.42
2023-02-06T12:06:10.077Z,2.40
2023-02-06T12:08:44.200Z,2.50
2023-02-06T12:11:18.057Z,2.60
2023-02-06T12:13:51.424Z,2.38
2023-02-06T12:16:18.708Z,2.63
2023-02-06T12:18:51.036Z,2.40
2023-02-06T12:21:30.159Z,2.40
2023-02-06T12:24:01.394Z,2.83
2023-02-06T12:26:30.719Z,2.65
2023-02-06T12:29:12.796Z,2.40
2023-02-06T12:32:05.743Z,2.40
2023-02-06T12:35:01.096Z,2.72
2023-02-06T12:37:39.863Z,2.42
2023-02-06T12:40:22.592Z,3.03
2023-02-06T12:42:58.286Z,2.80
2023-02-06T12:45:28.284Z,2.40
2023-02-06T12:48:02.662Z,2.47
2023-02-06T12:50:45.942Z,2.78
2023-02-06T12:53:44.529Z,2.58
2023-02-06T12:56:22.930Z,2.70
2023-02-06T12:59:16.656Z,2.15
2023-02-06T13:02:03.497Z,2.00
2023-02-06T13:04:34.850Z,2.10
2023-02-06T13:07:07.305Z,1.88
2023-02-06T13:09:41.535Z,2.25
2023-02-06T13:12:16.229Z,1.85
2023-02-06T13:14:49.708Z,2.40
2023-02-06T13:17:22.492Z,1.95
2023-02-06T13:19:48.968Z,2.40
2023-02-06T13:22:21.874Z,1.70
2023-02-06T13:24:50.988Z,2.13
2023-02-06T13:27:25.645Z,1.95
2023-02-06T13:29:54.077Z,2.15
2023-02-06T13:32:23.808Z,1.95
2023-02-06T13:34:50.702Z,2.25
2023-02-06T13:37:31.688Z,2.10
2023-02-06T13:40:23.259Z,1.77
2023-02-06T13:43:15.846Z,1.88
2023-02-06T13:45:57.841Z,2.25
2023-02-06T13:48:49.230Z,1.63
2023-02-06T13:51:31.014Z,1.92
2023-02-06T13:54:24.210Z,1.70
2023-02-06T13:57:09.769Z,2.15
2023-02-06T13:59:42.608Z,2.28
2023-02-06T14:02:19.600Z,2.05
2023-02-06T14:04:47.270Z,1.90
2023-02-06T14:07:34.083Z,2.15
2023-02-06T14:10:39.444Z,7.30
2023-02-06T14:13:08.253Z,2.35
2023-02-06T14:16:03.639Z,2.13
2023-02-06T14:18:52.077Z,2.22
2023-02-06T14:21:37.528Z,2.05
2023-02-06T14:24:33.143Z,1.83
2023-02-06T14:27:05.920Z,2.20
2023-02-06T14:29:52.769Z,2.08
2023-02-06T14:32:22.293Z,1.63
2023-02-06T14:35:07.222Z,2.22
2023-02-06T14:37:58.839Z,1.75
2023-02-06T14:40:29.565Z,1.83
2023-02-06T14:42:58.721Z,4.50
2023-02-06T14:45:25.313Z,1.95
2023-02-06T14:47:53.263Z,2.15
2023-02-06T14:50:24.232Z,1.85
2023-02-06T14:52:58.313Z,1.90
2023-02-06T14:55:40.077Z,2.08
2023-02-06T14:58:25.514Z,2.00
2023-02-06T15:00:53.330Z,2.22
2023-02-06T15:03:26.018Z,2.40
2023-02-06T15:06:06.607Z,2.35
2023-02-06T15:08:33.647Z,2.15
2023-02-06T15:11:03.529Z,2.03
2023-02-06T15:13:35.505Z,1.90
2023-02-06T15:16:05.949Z,2.70
2023-02-06T15:18:33.857Z,1.85
2023-02-06T15:21:12.530Z,1.95
2023-02-06T15:24:00.366Z,1.70
2023-02-06T15:26:36.840Z,1.80
2023-02-06T15:29:05.739Z,1.60
2023-02-06T15:31:32.722Z,1.60
2023-02-06T15:34:01.162Z,1.85
2023-02-06T15:36:39.330Z,1.60
2023-02-06T15:39:09.612Z,1.63
2023-02-06T15:41:37.326Z,1.63
2023-02-06T15:44:24.109Z,1.85
2023-02-06T15:46:51.833Z,1.60
2023-02-06T15:49:31.731Z,1.70
2023-02-06T15:51:58.683Z,1.85
2023-02-06T15:54:27.499Z,2.38
2023-02-06T15:57:07.885Z,1.65
2023-02-06T15:59:36.924Z,1.80
2023-02-06T16:02:04.259Z,1.90
2023-02-06T16:04:38.045Z,1.60
2023-02-06T16:07:16.498Z,2.03
2023-02-06T16:09:50.125Z,2.13
2023-02-06T16:12:17.829Z,2.33
2023-02-06T16:14:57.725Z,2.38
2023-02-06T16:17:33.512Z,1.90
2023-02-06T16:20:07.632Z,1.85
2023-02-06T16:22:40.081Z,2.10
2023-02-06T16:25:23.203Z,1.95
2023-02-06T16:27:53.571Z,1.92
2023-02-06T16:30:28.367Z,1.90
2023-02-06T16:32:57.620Z,1.80
2023-02-06T16:35:25.376Z,1.90
2023-02-06T16:37:54.271Z,1.80
2023-02-06T16:40:20.889Z,2.15
2023-02-06T16:42:47.817Z,2.25
2023-02-06T16:45:26.651Z,2.00
2023-02-06T16:47:53.983Z,1.60
2023-02-06T16:50:24.185Z,2.10
2023-02-06T16:52:53.681Z,2.47
2023-02-06T16:55:23.675Z,1.88
2023-02-06T16:57:54.829Z,2.10
2023-02-06T17:00:25.409Z,2.40
2023-02-06T17:02:53.077Z,2.45
2023-02-06T17:05:22.471Z,2.15
2023-02-06T17:07:51.094Z,2.00
2023-02-06T17:10:21.534Z,2.25
2023-02-06T17:12:49.357Z,4.07
2023-02-06T17:15:17.463Z,3.42
2023-02-06T17:17:44.225Z,3.38
2023-02-06T17:20:29.832Z,2.90
2023-02-06T17:22:56.470Z,3.47
2023-02-06T17:25:23.033Z,3.10
2023-02-06T17:27:49.623Z,3.13
2023-02-06T17:30:21.687Z,3.33
2023-02-06T17:35:15.603Z,3.58
2023-02-06T17:37:42.260Z,3.40
2023-02-06T17:40:11.779Z,3.13
2023-02-06T17:42:38.380Z,3.40
2023-02-06T17:45:05.197Z,3.53
2023-02-06T17:47:31.796Z,3.45
2023-02-06T17:49:58.403Z,3.60
2023-02-06T17:52:26.156Z,5.68
2023-02-06T17:54:52.704Z,5.05
2023-02-06T17:57:19.264Z,4.85
2023-02-06T17:59:45.840Z,5.93
2023-02-06T18:02:14.455Z,6.40
2023-02-06T18:04:41.399Z,6.43
2023-02-06T18:07:08.242Z,7.65
2023-02-06T18:09:34.802Z,6.05
2023-02-06T18:12:01.349Z,6.65
2023-02-06T18:14:28.014Z,5.95
2023-02-06T18:16:54.593Z,4.82
2023-02-06T18:19:24.851Z,4.20
2023-02-06T18:21:51.727Z,4.07
2023-02-06T18:24:18.273Z,4.07
2023-02-06T18:26:44.923Z,4.35
2023-02-06T18:29:11.465Z,4.65
2023-02-06T18:31:38.593Z,4.20
2023-02-06T18:34:08.058Z,4.15
2023-02-06T18:36:36.244Z,4.50
2023-02-06T18:39:03.962Z,4.05
2023-02-06T18:41:48.834Z,4.70
2023-02-06T18:44:15.417Z,5.55
2023-02-06T18:46:42.107Z,4.95
2023-02-06T18:49:08.727Z,4.95
2023-02-06T18:51:35.533Z,5.55
2023-02-06T18:54:02.175Z,5.15
2023-02-06T18:56:28.824Z,8.55
2023-02-06T18:58:55.424Z,9.85
2023-02-06T19:01:23.509Z,7.35
2023-02-06T19:03:52.319Z,6.93
2023-02-06T19:06:24.786Z,5.78
2023-02-06T19:08:51.404Z,12.15
2023-02-06T19:11:18.031Z,7.80
2023-02-06T19:13:44.633Z,6.05
2023-02-06T19:16:17.753Z,7.43
2023-02-06T19:18:46.742Z,6.30
2023-02-06T19:21:16.463Z,6.60
2023-02-06T19:23:44.056Z,6.18
2023-02-06T19:26:13.514Z,7.68
2023-02-06T19:28:41.217Z,6.88
2023-02-06T19:31:09.623Z,7.53
2023-02-06T19:33:38.595Z,7.07
2023-02-06T19:36:10.376Z,6.88
2023-02-06T19:38:37.126Z,7.35
2023-02-06T19:41:24.096Z,6.35
2023-02-06T19:43:52.548Z,6.32
2023-02-06T19:46:22.245Z,7.57
2023-02-06T19:48:50.376Z,7.57
2023-02-06T19:51:22.776Z,6.90
2023-02-06T19:53:51.110Z,6.05
2023-02-06T19:56:24.489Z,6.15
2023-02-06T19:59:18.067Z,7.30
2023-02-06T20:01:49.956Z,7.20
2023-02-06T20:04:17.504Z,6.70
2023-02-06T20:06:44.334Z,6.80
2023-02-06T20:09:12.949Z,5.32
2023-02-06T20:11:39.929Z,6.65
2023-02-06T20:14:07.030Z,6.72
2023-02-06T20:16:35.775Z,6.50
2023-02-06T20:19:21.129Z,7.40
2023-02-06T20:21:51.252Z,6.03
2023-02-06T20:24:21.988Z,6.15
2023-02-06T20:26:50.726Z,6.20
2023-02-06T20:29:23.747Z,6.32
2023-02-06T20:31:50.780Z,6.07
2023-02-06T20:34:18.040Z,7.22
2023-02-06T20:36:45.467Z,6.90
2023-02-06T20:39:13.740Z,7.57
2023-02-06T20:41:41.134Z,7.13
2023-02-06T20:44:08.177Z,7.30
2023-02-06T20:46:36.451Z,7.18
2023-02-06T20:49:05.694Z,7.28
2023-02-06T20:51:32.573Z,7.63
2023-02-06T20:53:59.213Z,7.57
2023-02-06T20:56:27.091Z,6.80
2023-02-06T20:58:53.871Z,7.30
2023-02-06T21:01:29.526Z,6.75
2023-02-06T21:03:58.961Z,8.02
2023-02-06T21:06:26.748Z,13.73
2023-02-06T21:08:57.385Z,9.63
2023-02-06T21:11:24.139Z,7.57
2023-02-06T21:13:50.704Z,7.65
2023-02-06T21:16:17.377Z,8.65
2023-02-06T21:18:43.975Z,8.98
2023-02-06T21:21:13.463Z,8.52
2023-02-06T21:23:42.463Z,8.80
2023-02-06T21:26:11.116Z,9.13
2023-02-06T21:28:38.723Z,9.13
2023-02-06T21:31:09.471Z,8.45
2023-02-06T21:33:37.208Z,9.13
2023-02-06T21:36:06.943Z,8.77
2023-02-06T21:38:35.297Z,8.57
2023-02-06T21:41:14.049Z,9.18
2023-02-06T21:43:40.666Z,8.40
2023-02-06T21:46:07.492Z,8.82
2023-02-06T21:48:34.977Z,8.80
2023-02-06T21:51:15.803Z,8.88
2023-02-06T21:53:44.384Z,8.73
2023-02-06T21:56:22.694Z,9.13
2023-02-06T21:58:50.341Z,9.27
2023-02-06T22:01:26.027Z,10.27
2023-02-06T22:03:53.524Z,8.35
2023-02-06T22:06:20.845Z,9.23
2023-02-06T22:08:51.924Z,7.75
2023-02-06T22:11:21.323Z,9.63
2023-02-06T22:13:48.565Z,8.32
2023-02-06T22:16:17.285Z,8.32
2023-02-06T22:18:43.883Z,8.90
2023-02-06T22:21:13.636Z,8.00
2023-02-06T22:23:41.265Z,8.60
2023-02-06T22:26:09.994Z,7.53
2023-02-06T22:28:36.890Z,8.43
2023-02-06T22:31:07.459Z,7.70
2023-02-06T22:33:34.674Z,8.27
2023-02-06T22:36:13.472Z,7.90
2023-02-06T22:38:41.131Z,8.15
2023-02-06T22:41:11.133Z,7.72
2023-02-06T22:43:39.616Z,7.57
2023-02-06T22:46:07.543Z,7.97
2023-02-06T22:48:35.202Z,8.80
2023-02-06T22:51:09.935Z,7.78
2023-02-06T22:53:38.296Z,8.40
2023-02-06T22:56:26.112Z,7.22
2023-02-06T22:59:00.134Z,8.65
2023-02-06T23:01:30.678Z,9.52
2023-02-06T23:03:58.012Z,8.15
2023-02-06T23:06:26.422Z,8.10
2023-02-06T23:08:53.346Z,9.80
2023-02-06T23:11:20.380Z,8.18
2023-02-06T23:13:52.468Z,8.57
2023-02-06T23:16:19.577Z,8.98
2023-02-06T23:18:46.259Z,9.07
2023-02-06T23:21:14.154Z,7.38
2023-02-06T23:23:41.653Z,8.57
2023-02-06T23:26:10.722Z,7.85
2023-02-06T23:28:38.003Z,8.75
2023-02-06T23:31:05.825Z,8.30
2023-02-06T23:44:47.509Z,7.63
2023-02-06T23:47:14.045Z,7.00
2023-02-06T23:49:40.620Z,9.02
2023-02-06T23:52:07.191Z,7.28
2023-02-06T23:54:33.823Z,7.80
2023-02-06T23:57:00.412Z,7.65
2023-02-06T23:59:27.049Z,7.22
